KSKF/SKF METAR and TAF weather

Enter ICAO airport designator
Station Type Date Time Source
KSKF METAR 2022/07/01 00:56 UTC NOAA

KSKF 010056Z AUTO 09009KT 10SM FEW080 34/18 A2988 RMK AO2 SLP110 T03390180 $


Station Type Date Time Source
KSKF Decoded METAR 2022/07/01 00:56 UTC NOAA

Kelly Air Force Base, TX, United States (KSKF) 29-23N 098-35W
Jun 30, 2022 - 08:56 PM EDT / 2022.07.01 0056 UTC
Wind: from the E (090 degrees) at 10 MPH (9 KT):0
Visibility: 10 mile(s):0
Sky conditions: mostly clear
Temperature: 93.0 F (33.9 C)
Heat index: 94.6 F (34.8 C):1
Dew Point: 64.4 F (18.0 C)
Relative Humidity: 38%
Pressure (altimeter): 29.88 in. Hg (1011 hPa)
ob: KSKF 010056Z AUTO 09009KT 10SM FEW080 34/18 A2988 RMK AO2 SLP110 T03390180
cycle: 1

Station Type Date Time Source
KSKF TAF 2022/06/30 18:06 UTC NOAA

TAF TAF KSKF 301800Z 3018/0124 09008KT 9999 FEW050 SCT250 QNH2988INS
BECMG 3021/3022 11012KT 9999 VCSH SCT070 BKN250 QNH2986INS
BECMG 0103/0104 10007KT 9999 NSW SCT250 QNH2992INS
BECMG 0107/0108 08005KT 9999 BKN015 QNH2994INS
BECMG 0114/0115 09007KT 9999 FEW030 QNH2982INS TX36/3022Z TN23/0111Z

Example: see airport list